sensor_id;sensor_type;location;lat;lon;timestamp;pressure;altitude;pressure_sealevel;temperature
68952;BMP180;56000;51.146;17.112;2024-03-02T00:01:29;99464.60;;;10.40
68952;BMP180;56000;51.146;17.112;2024-03-02T00:03:57;99465.00;;;10.40
68952;BMP180;56000;51.146;17.112;2024-03-02T00:06:26;99458.80;;;10.40
68952;BMP180;56000;51.146;17.112;2024-03-02T00:08:58;99458.40;;;10.32
68952;BMP180;56000;51.146;17.112;2024-03-02T00:11:27;99458.00;;;10.30
68952;BMP180;56000;51.146;17.112;2024-03-02T00:13:56;99451.20;;;10.32
68952;BMP180;56000;51.146;17.112;2024-03-02T00:16:24;99448.60;;;10.32
68952;BMP180;56000;51.146;17.112;2024-03-02T00:19:01;99454.60;;;10.36
68952;BMP180;56000;51.146;17.112;2024-03-02T00:21:30;99462.80;;;10.40
68952;BMP180;56000;51.146;17.112;2024-03-02T00:23:59;99455.20;;;10.40
68952;BMP180;56000;51.146;17.112;2024-03-02T00:26:31;99453.80;;;10.40
68952;BMP180;56000;51.146;17.112;2024-03-02T00:28:59;99449.60;;;10.40
68952;BMP180;56000;51.146;17.112;2024-03-02T00:31:29;99452.80;;;10.40
68952;BMP180;56000;51.146;17.112;2024-03-02T00:33:57;99452.80;;;10.40
68952;BMP180;56000;51.146;17.112;2024-03-02T00:36:30;99451.40;;;10.40
68952;BMP180;56000;51.146;17.112;2024-03-02T00:38:58;99448.80;;;10.40
68952;BMP180;56000;51.146;17.112;2024-03-02T00:41:29;99445.20;;;10.40
68952;BMP180;56000;51.146;17.112;2024-03-02T00:44:04;99443.60;;;10.40
68952;BMP180;56000;51.146;17.112;2024-03-02T00:46:34;99433.80;;;10.40
68952;BMP180;56000;51.146;17.112;2024-03-02T00:49:04;99429.20;;;10.32
68952;BMP180;56000;51.146;17.112;2024-03-02T00:51:33;99430.80;;;10.30
68952;BMP180;56000;51.146;17.112;2024-03-02T00:54:05;99435.00;;;10.30
68952;BMP180;56000;51.146;17.112;2024-03-02T00:56:35;99439.00;;;10.20
68952;BMP180;56000;51.146;17.112;2024-03-02T00:59:03;99436.20;;;10.20
68952;BMP180;56000;51.146;17.112;2024-03-02T01:01:32;99435.80;;;10.20
68952;BMP180;56000;51.146;17.112;2024-03-02T01:04:00;99435.00;;;10.20
68952;BMP180;56000;51.146;17.112;2024-03-02T01:06:29;99426.40;;;10.20
68952;BMP180;56000;51.146;17.112;2024-03-02T01:08:58;99423.60;;;10.20
68952;BMP180;56000;51.146;17.112;2024-03-02T01:11:27;99425.60;;;10.20
68952;BMP180;56000;51.146;17.112;2024-03-02T01:13:55;99430.00;;;10.20
68952;BMP180;56000;51.146;17.112;2024-03-02T01:16:24;99437.80;;;10.12
68952;BMP180;56000;51.146;17.112;2024-03-02T01:18:52;99440.80;;;10.10
68952;BMP180;56000;51.146;17.112;2024-03-02T01:21:21;99444.40;;;10.10
68952;BMP180;56000;51.146;17.112;2024-03-02T01:23:50;99439.80;;;10.10
68952;BMP180;56000;51.146;17.112;2024-03-02T01:26:21;99441.80;;;10.10
68952;BMP180;56000;51.146;17.112;2024-03-02T01:28:49;99437.40;;;10.10
68952;BMP180;56000;51.146;17.112;2024-03-02T01:31:18;99440.40;;;10.10
68952;BMP180;56000;51.146;17.112;2024-03-02T01:33:46;99443.60;;;10.04
68952;BMP180;56000;51.146;17.112;2024-03-02T01:36:15;99442.20;;;10.00
68952;BMP180;56000;51.146;17.112;2024-03-02T01:38:43;99441.40;;;10.00
68952;BMP180;56000;51.146;17.112;2024-03-02T01:41:14;99442.60;;;10.00
68952;BMP180;56000;51.146;17.112;2024-03-02T01:43:43;99441.80;;;10.00
68952;BMP180;56000;51.146;17.112;2024-03-02T01:46:11;99446.00;;;10.00
68952;BMP180;56000;51.146;17.112;2024-03-02T01:48:40;99448.00;;;10.00
68952;BMP180;56000;51.146;17.112;2024-03-02T01:51:08;99446.40;;;10.00
68952;BMP180;56000;51.146;17.112;2024-03-02T01:53:38;99439.00;;;10.00
68952;BMP180;56000;51.146;17.112;2024-03-02T01:56:06;99441.00;;;10.02
68952;BMP180;56000;51.146;17.112;2024-03-02T01:58:35;99443.60;;;10.08
68952;BMP180;56000;51.146;17.112;2024-03-02T02:01:04;99444.80;;;10.10
68952;BMP180;56000;51.146;17.112;2024-03-02T02:03:33;99445.00;;;10.10
68952;BMP180;56000;51.146;17.112;2024-03-02T02:06:01;99439.20;;;10.08
68952;BMP180;56000;51.146;17.112;2024-03-02T02:08:30;99439.20;;;10.02
68952;BMP180;56000;51.146;17.112;2024-03-02T02:10:59;99441.20;;;10.00
68952;BMP180;56000;51.146;17.112;2024-03-02T02:13:27;99441.00;;;10.00
68952;BMP180;56000;51.146;17.112;2024-03-02T02:15:56;99439.20;;;10.00
68952;BMP180;56000;51.146;17.112;2024-03-02T02:18:34;99433.20;;;10.00
68952;BMP180;56000;51.146;17.112;2024-03-02T02:21:04;99435.20;;;10.00
68952;BMP180;56000;51.146;17.112;2024-03-02T02:23:32;99434.40;;;10.00
68952;BMP180;56000;51.146;17.112;2024-03-02T02:26:01;99433.80;;;9.92
68952;BMP180;56000;51.146;17.112;2024-03-02T02:28:30;99432.80;;;9.90
68952;BMP180;56000;51.146;17.112;2024-03-02T02:30:59;99428.20;;;9.90
68952;BMP180;56000;51.146;17.112;2024-03-02T02:33:28;99425.20;;;9.90
68952;BMP180;56000;51.146;17.112;2024-03-02T02:35:57;99422.80;;;9.80
68952;BMP180;56000;51.146;17.112;2024-03-02T02:38:25;99415.60;;;9.80
68952;BMP180;56000;51.146;17.112;2024-03-02T02:40:54;99411.00;;;9.70
68952;BMP180;56000;51.146;17.112;2024-03-02T02:43:22;99404.20;;;9.70
68952;BMP180;56000;51.146;17.112;2024-03-02T02:45:51;99401.60;;;9.60
68952;BMP180;56000;51.146;17.112;2024-03-02T02:48:20;99396.80;;;9.52
68952;BMP180;56000;51.146;17.112;2024-03-02T02:50:48;99393.80;;;9.50
68952;BMP180;56000;51.146;17.112;2024-03-02T02:53:17;99391.20;;;9.40
68952;BMP180;56000;51.146;17.112;2024-03-02T02:55:45;99390.60;;;9.40
68952;BMP180;56000;51.146;17.112;2024-03-02T02:58:14;99394.80;;;9.30
68952;BMP180;56000;51.146;17.112;2024-03-02T03:00:43;99389.20;;;9.30
68952;BMP180;56000;51.146;17.112;2024-03-02T03:03:11;99391.00;;;9.20
68952;BMP180;56000;51.146;17.112;2024-03-02T03:05:40;99394.40;;;9.20
68952;BMP180;56000;51.146;17.112;2024-03-02T03:08:08;99398.60;;;9.10
68952;BMP180;56000;51.146;17.112;2024-03-02T03:10:37;99400.80;;;9.10
68952;BMP180;56000;51.146;17.112;2024-03-02T03:13:05;99407.40;;;9.00
68952;BMP180;56000;51.146;17.112;2024-03-02T03:15:36;99415.80;;;9.00
68952;BMP180;56000;51.146;17.112;2024-03-02T03:18:05;99418.00;;;9.00
68952;BMP180;56000;51.146;17.112;2024-03-02T03:20:34;99417.20;;;9.00
68952;BMP180;56000;51.146;17.112;2024-03-02T03:23:02;99421.80;;;9.00
68952;BMP180;56000;51.146;17.112;2024-03-02T03:25:31;99416.00;;;9.00
68952;BMP180;56000;51.146;17.112;2024-03-02T03:28:00;99419.80;;;9.10
68952;BMP180;56000;51.146;17.112;2024-03-02T03:30:30;99419.40;;;9.10
68952;BMP180;56000;51.146;17.112;2024-03-02T03:32:59;99422.20;;;9.18
68952;BMP180;56000;51.146;17.112;2024-03-02T03:35:29;99421.00;;;9.20
68952;BMP180;56000;51.146;17.112;2024-03-02T03:37:57;99425.00;;;9.20
68952;BMP180;56000;51.146;17.112;2024-03-02T03:40:26;99429.60;;;9.30
68952;BMP180;56000;51.146;17.112;2024-03-02T03:42:54;99433.00;;;9.30
68952;BMP180;56000;51.146;17.112;2024-03-02T03:45:25;99423.40;;;9.40
68952;BMP180;56000;51.146;17.112;2024-03-02T03:47:54;99425.00;;;9.40
68952;BMP180;56000;51.146;17.112;2024-03-02T03:50:23;99426.40;;;9.40
68952;BMP180;56000;51.146;17.112;2024-03-02T03:52:52;99423.00;;;9.46
68952;BMP180;56000;51.146;17.112;2024-03-02T03:55:20;99424.00;;;9.50
68952;BMP180;56000;51.146;17.112;2024-03-02T03:57:49;99422.20;;;9.50
68952;BMP180;56000;51.146;17.112;2024-03-02T04:00:18;99421.00;;;9.50
68952;BMP180;56000;51.146;17.112;2024-03-02T04:02:46;99426.00;;;9.50
68952;BMP180;56000;51.146;17.112;2024-03-02T04:05:15;99429.60;;;9.50
68952;BMP180;56000;51.146;17.112;2024-03-02T04:07:43;99430.40;;;9.54
68952;BMP180;56000;51.146;17.112;2024-03-02T04:10:12;99427.80;;;9.60
68952;BMP180;56000;51.146;17.112;2024-03-02T04:12:41;99427.80;;;9.60
68952;BMP180;56000;51.146;17.112;2024-03-02T04:15:10;99422.80;;;9.60
68952;BMP180;56000;51.146;17.112;2024-03-02T04:17:38;99428.60;;;9.60
68952;BMP180;56000;51.146;17.112;2024-03-02T04:20:08;99430.80;;;9.60
68952;BMP180;56000;51.146;17.112;2024-03-02T04:22:37;99432.40;;;9.60
68952;BMP180;56000;51.146;17.112;2024-03-02T04:25:06;99434.00;;;9.60
68952;BMP180;56000;51.146;17.112;2024-03-02T04:27:35;99432.60;;;9.58
68952;BMP180;56000;51.146;17.112;2024-03-02T04:30:06;99433.40;;;9.58
68952;BMP180;56000;51.146;17.112;2024-03-02T04:32:35;99432.40;;;9.58
68952;BMP180;56000;51.146;17.112;2024-03-02T04:35:05;99424.00;;;9.56
68952;BMP180;56000;51.146;17.112;2024-03-02T04:37:35;99430.80;;;9.54
68952;BMP180;56000;51.146;17.112;2024-03-02T04:40:06;99419.00;;;9.50
68952;BMP180;56000;51.146;17.112;2024-03-02T04:42:36;99422.40;;;9.50
68952;BMP180;56000;51.146;17.112;2024-03-02T04:45:05;99432.60;;;9.50
68952;BMP180;56000;51.146;17.112;2024-03-02T04:47:34;99437.00;;;9.50
68952;BMP180;56000;51.146;17.112;2024-03-02T04:50:04;99437.80;;;9.50
68952;BMP180;56000;51.146;17.112;2024-03-02T04:52:35;99438.60;;;9.50
68952;BMP180;56000;51.146;17.112;2024-03-02T04:55:05;99436.60;;;9.50
68952;BMP180;56000;51.146;17.112;2024-03-02T04:57:52;99435.60;;;9.50
68952;BMP180;56000;51.146;17.112;2024-03-02T05:00:22;99440.60;;;9.50
68952;BMP180;56000;51.146;17.112;2024-03-02T05:02:51;99446.60;;;9.50
68952;BMP180;56000;51.146;17.112;2024-03-02T05:05:19;99442.00;;;9.50
68952;BMP180;56000;51.146;17.112;2024-03-02T05:07:48;99445.80;;;9.50
68952;BMP180;56000;51.146;17.112;2024-03-02T05:10:17;99448.20;;;9.42
68952;BMP180;56000;51.146;17.112;2024-03-02T05:12:45;99449.80;;;9.40
68952;BMP180;56000;51.146;17.112;2024-03-02T05:15:27;99454.40;;;9.40
68952;BMP180;56000;51.146;17.112;2024-03-02T05:17:55;99449.80;;;9.30
68952;BMP180;56000;51.146;17.112;2024-03-02T05:20:25;99453.00;;;9.30
68952;BMP180;56000;51.146;17.112;2024-03-02T05:22:54;99456.20;;;9.20
68952;BMP180;56000;51.146;17.112;2024-03-02T05:25:22;99458.20;;;9.20
68952;BMP180;56000;51.146;17.112;2024-03-02T05:27:51;99460.00;;;9.14
68952;BMP180;56000;51.146;17.112;2024-03-02T05:30:20;99461.40;;;9.10
68952;BMP180;56000;51.146;17.112;2024-03-02T05:32:48;99468.60;;;9.10
68952;BMP180;56000;51.146;17.112;2024-03-02T05:35:17;99470.20;;;9.00
68952;BMP180;56000;51.146;17.112;2024-03-02T05:37:45;99470.20;;;9.00
68952;BMP180;56000;51.146;17.112;2024-03-02T05:40:14;99474.60;;;9.00
68952;BMP180;56000;51.146;17.112;2024-03-02T05:42:43;99479.40;;;9.00
68952;BMP180;56000;51.146;17.112;2024-03-02T05:45:11;99473.00;;;8.90
68952;BMP180;56000;51.146;17.112;2024-03-02T05:47:40;99474.00;;;8.90
68952;BMP180;56000;51.146;17.112;2024-03-02T05:50:09;99475.80;;;8.90
68952;BMP180;56000;51.146;17.112;2024-03-02T05:52:39;99477.20;;;8.90
68952;BMP180;56000;51.146;17.112;2024-03-02T05:55:08;99482.20;;;8.90
68952;BMP180;56000;51.146;17.112;2024-03-02T05:57:36;99480.20;;;8.90
68952;BMP180;56000;51.146;17.112;2024-03-02T06:00:18;99481.00;;;8.90
68952;BMP180;56000;51.146;17.112;2024-03-02T06:02:46;99480.00;;;8.90
68952;BMP180;56000;51.146;17.112;2024-03-02T06:05:15;99482.20;;;8.90
68952;BMP180;56000;51.146;17.112;2024-03-02T06:07:44;99482.60;;;8.90
68952;BMP180;56000;51.146;17.112;2024-03-02T06:10:13;99492.20;;;8.90
68952;BMP180;56000;51.146;17.112;2024-03-02T06:12:44;99490.20;;;8.94
68952;BMP180;56000;51.146;17.112;2024-03-02T06:15:13;99503.00;;;8.96
68952;BMP180;56000;51.146;17.112;2024-03-02T06:17:42;99500.40;;;9.00
68952;BMP180;56000;51.146;17.112;2024-03-02T06:20:12;99505.00;;;9.00
68952;BMP180;56000;51.146;17.112;2024-03-02T06:22:40;99503.40;;;9.00
68952;BMP180;56000;51.146;17.112;2024-03-02T06:25:09;99512.00;;;9.00
68952;BMP180;56000;51.146;17.112;2024-03-02T06:27:38;99501.60;;;9.00
68952;BMP180;56000;51.146;17.112;2024-03-02T06:30:07;99506.40;;;9.00
68952;BMP180;56000;51.146;17.112;2024-03-02T06:32:36;99507.40;;;9.02
68952;BMP180;56000;51.146;17.112;2024-03-02T06:35:06;99504.00;;;9.10
68952;BMP180;56000;51.146;17.112;2024-03-02T06:37:38;99517.00;;;9.10
68952;BMP180;56000;51.146;17.112;2024-03-02T06:40:09;99518.60;;;9.10
68952;BMP180;56000;51.146;17.112;2024-03-02T06:42:37;99518.40;;;9.20
68952;BMP180;56000;51.146;17.112;2024-03-02T06:45:07;99515.60;;;9.20
68952;BMP180;56000;51.146;17.112;2024-03-02T06:47:35;99518.00;;;9.30
68952;BMP180;56000;51.146;17.112;2024-03-02T06:50:05;99523.40;;;9.36
68952;BMP180;56000;51.146;17.112;2024-03-02T06:52:34;99525.80;;;9.40
68952;BMP180;56000;51.146;17.112;2024-03-02T06:55:03;99521.20;;;9.50
68952;BMP180;56000;51.146;17.112;2024-03-02T06:57:32;99521.80;;;9.52
68952;BMP180;56000;51.146;17.112;2024-03-02T07:00:01;99518.00;;;9.60
68952;BMP180;56000;51.146;17.112;2024-03-02T07:02:32;99520.40;;;9.70
68952;BMP180;56000;51.146;17.112;2024-03-02T07:05:01;99522.40;;;9.80
68952;BMP180;56000;51.146;17.112;2024-03-02T07:07:30;99525.60;;;10.00
68952;BMP180;56000;51.146;17.112;2024-03-02T07:09:59;99528.40;;;10.10
68952;BMP180;56000;51.146;17.112;2024-03-02T07:12:28;99520.60;;;10.28
68952;BMP180;56000;51.146;17.112;2024-03-02T07:14:56;99531.80;;;10.40
68952;BMP180;56000;51.146;17.112;2024-03-02T07:17:52;99530.20;;;10.40
68952;BMP180;56000;51.146;17.112;2024-03-02T07:20:21;99530.20;;;10.50
68952;BMP180;56000;51.146;17.112;2024-03-02T07:22:50;99529.00;;;10.60
68952;BMP180;56000;51.146;17.112;2024-03-02T07:25:18;99534.60;;;10.70
68952;BMP180;56000;51.146;17.112;2024-03-02T07:27:49;99536.60;;;10.80
68952;BMP180;56000;51.146;17.112;2024-03-02T07:30:19;99535.00;;;11.00
68952;BMP180;56000;51.146;17.112;2024-03-02T07:32:49;99531.40;;;11.20
68952;BMP180;56000;51.146;17.112;2024-03-02T07:35:18;99533.60;;;11.40
68952;BMP180;56000;51.146;17.112;2024-03-02T07:37:46;99535.60;;;11.60
68952;BMP180;56000;51.146;17.112;2024-03-02T07:40:15;99541.00;;;11.80
68952;BMP180;56000;51.146;17.112;2024-03-02T07:42:43;99538.00;;;12.02
68952;BMP180;56000;51.146;17.112;2024-03-02T07:45:13;99538.00;;;12.12
68952;BMP180;56000;51.146;17.112;2024-03-02T07:47:41;99539.80;;;12.10
68952;BMP180;56000;51.146;17.112;2024-03-02T07:50:11;99547.00;;;12.20
68952;BMP180;56000;51.146;17.112;2024-03-02T07:52:40;99544.40;;;12.20
68952;BMP180;56000;51.146;17.112;2024-03-02T07:55:09;99545.20;;;12.32
68952;BMP180;56000;51.146;17.112;2024-03-02T07:57:37;99546.00;;;12.34
68952;BMP180;56000;51.146;17.112;2024-03-02T08:00:08;99549.60;;;12.40
68952;BMP180;56000;51.146;17.112;2024-03-02T08:02:41;99547.80;;;12.48
68952;BMP180;56000;51.146;17.112;2024-03-02T08:05:10;99555.20;;;12.52
68952;BMP180;56000;51.146;17.112;2024-03-02T08:07:38;99554.20;;;12.60
68952;BMP180;56000;51.146;17.112;2024-03-02T08:10:08;99557.40;;;12.80
68952;BMP180;56000;51.146;17.112;2024-03-02T08:12:37;99563.40;;;12.90
68952;BMP180;56000;51.146;17.112;2024-03-02T08:15:07;99552.20;;;13.10
68952;BMP180;56000;51.146;17.112;2024-03-02T08:17:36;99551.60;;;13.24
68952;BMP180;56000;51.146;17.112;2024-03-02T08:20:08;99547.60;;;13.50
68952;BMP180;56000;51.146;17.112;2024-03-02T08:22:37;99550.20;;;13.80
68952;BMP180;56000;51.146;17.112;2024-03-02T08:25:07;99554.60;;;14.00
68952;BMP180;56000;51.146;17.112;2024-03-02T08:27:36;99554.60;;;14.10
68952;BMP180;56000;51.146;17.112;2024-03-02T08:30:07;99554.20;;;14.30
68952;BMP180;56000;51.146;17.112;2024-03-02T08:32:36;99559.40;;;14.40
68952;BMP180;56000;51.146;17.112;2024-03-02T08:35:06;99546.40;;;14.58
68952;BMP180;56000;51.146;17.112;2024-03-02T08:37:35;99543.40;;;14.68
68952;BMP180;56000;51.146;17.112;2024-03-02T08:40:10;99542.80;;;14.80
68952;BMP180;56000;51.146;17.112;2024-03-02T08:42:46;99541.60;;;15.06
68952;BMP180;56000;51.146;17.112;2024-03-02T08:45:15;99534.20;;;15.30
68952;BMP180;56000;51.146;17.112;2024-03-02T08:47:44;99537.80;;;15.58
68952;BMP180;56000;51.146;17.112;2024-03-02T08:50:13;99535.20;;;15.90
68952;BMP180;56000;51.146;17.112;2024-03-02T08:52:41;99533.80;;;16.18
68952;BMP180;56000;51.146;17.112;2024-03-02T08:55:10;99535.80;;;16.50
68952;BMP180;56000;51.146;17.112;2024-03-02T08:57:39;99532.80;;;16.70
68952;BMP180;56000;51.146;17.112;2024-03-02T09:00:11;99533.00;;;16.70
68952;BMP180;56000;51.146;17.112;2024-03-02T09:02:40;99536.60;;;16.86
68952;BMP180;56000;51.146;17.112;2024-03-02T09:05:09;99533.60;;;17.00
68952;BMP180;56000;51.146;17.112;2024-03-02T09:07:37;99535.00;;;17.00
68952;BMP180;56000;51.146;17.112;2024-03-02T09:10:08;99538.40;;;17.00
68952;BMP180;56000;51.146;17.112;2024-03-02T09:12:37;99544.00;;;16.90
68952;BMP180;56000;51.146;17.112;2024-03-02T09:15:07;99543.60;;;16.82
68952;BMP180;56000;51.146;17.112;2024-03-02T09:17:36;99539.40;;;16.70
68952;BMP180;56000;51.146;17.112;2024-03-02T09:20:05;99543.40;;;16.46
68952;BMP180;56000;51.146;17.112;2024-03-02T09:22:34;99542.40;;;16.28
68952;BMP180;56000;51.146;17.112;2024-03-02T09:25:02;99540.80;;;16.20
68952;BMP180;56000;51.146;17.112;2024-03-02T09:27:31;99541.80;;;16.20
68952;BMP180;56000;51.146;17.112;2024-03-02T09:30:00;99540.00;;;16.20
68952;BMP180;56000;51.146;17.112;2024-03-02T09:32:28;99540.00;;;16.20
68952;BMP180;56000;51.146;17.112;2024-03-02T09:34:57;99545.40;;;16.10
68952;BMP180;56000;51.146;17.112;2024-03-02T09:37:26;99536.60;;;16.10
68952;BMP180;56000;51.146;17.112;2024-03-02T09:39:56;99543.40;;;16.20
68952;BMP180;56000;51.146;17.112;2024-03-02T09:42:25;99539.40;;;16.40
68952;BMP180;56000;51.146;17.112;2024-03-02T09:44:54;99541.80;;;16.50
68952;BMP180;56000;51.146;17.112;2024-03-02T09:47:22;99538.20;;;16.60
68952;BMP180;56000;51.146;17.112;2024-03-02T09:49:51;99539.80;;;16.60
68952;BMP180;56000;51.146;17.112;2024-03-02T09:52:21;99534.00;;;16.70
68952;BMP180;56000;51.146;17.112;2024-03-02T09:54:50;99538.60;;;16.70
68952;BMP180;56000;51.146;17.112;2024-03-02T09:57:19;99538.20;;;16.80
68952;BMP180;56000;51.146;17.112;2024-03-02T09:59:47;99535.40;;;16.80
68952;BMP180;56000;51.146;17.112;2024-03-02T10:02:16;99537.80;;;16.80
68952;BMP180;56000;51.146;17.112;2024-03-02T10:04:44;99545.40;;;16.90
68952;BMP180;56000;51.146;17.112;2024-03-02T10:07:15;99543.60;;;16.90
68952;BMP180;56000;51.146;17.112;2024-03-02T10:09:45;99541.00;;;16.90
68952;BMP180;56000;51.146;17.112;2024-03-02T10:12:15;99541.40;;;16.90
68952;BMP180;56000;51.146;17.112;2024-03-02T10:14:44;99543.20;;;17.00
68952;BMP180;56000;51.146;17.112;2024-03-02T10:17:13;99539.80;;;17.10
68952;BMP180;56000;51.146;17.112;2024-03-02T10:19:42;99536.20;;;17.20
68952;BMP180;56000;51.146;17.112;2024-03-02T10:22:10;99537.00;;;17.24
68952;BMP180;56000;51.146;17.112;2024-03-02T10:24:40;99532.60;;;17.30
68952;BMP180;56000;51.146;17.112;2024-03-02T10:27:09;99530.00;;;17.20
68952;BMP180;56000;51.146;17.112;2024-03-02T10:29:45;99532.40;;;17.26
68952;BMP180;56000;51.146;17.112;2024-03-02T10:32:14;99532.20;;;17.30
68952;BMP180;56000;51.146;17.112;2024-03-02T10:34:44;99525.80;;;17.20
68952;BMP180;56000;51.146;17.112;2024-03-02T10:37:13;99528.80;;;17.20
68952;BMP180;56000;51.146;17.112;2024-03-02T10:39:42;99530.40;;;17.20
68952;BMP180;56000;51.146;17.112;2024-03-02T10:42:11;99528.20;;;17.20
68952;BMP180;56000;51.146;17.112;2024-03-02T10:44:40;99523.20;;;17.20
68952;BMP180;56000;51.146;17.112;2024-03-02T10:47:09;99526.20;;;17.10
68952;BMP180;56000;51.146;17.112;2024-03-02T10:49:39;99523.80;;;17.00
68952;BMP180;56000;51.146;17.112;2024-03-02T10:52:09;99521.20;;;16.88
68952;BMP180;56000;51.146;17.112;2024-03-02T10:54:38;99515.60;;;16.82
68952;BMP180;56000;51.146;17.112;2024-03-02T10:57:08;99512.40;;;16.86
68952;BMP180;56000;51.146;17.112;2024-03-02T10:59:44;99513.60;;;16.80
68952;BMP180;56000;51.146;17.112;2024-03-02T11:02:16;99515.60;;;16.70
68952;BMP180;56000;51.146;17.112;2024-03-02T11:04:45;99518.40;;;16.72
68952;BMP180;56000;51.146;17.112;2024-03-02T11:07:15;99517.60;;;16.80
68952;BMP180;56000;51.146;17.112;2024-03-02T11:09:57;99517.20;;;16.80
68952;BMP180;56000;51.146;17.112;2024-03-02T11:12:29;99520.60;;;16.70
68952;BMP180;56000;51.146;17.112;2024-03-02T11:14:58;99520.40;;;16.70
68952;BMP180;56000;51.146;17.112;2024-03-02T11:17:26;99520.80;;;16.70
68952;BMP180;56000;51.146;17.112;2024-03-02T11:19:55;99522.40;;;16.70
68952;BMP180;56000;51.146;17.112;2024-03-02T11:22:24;99522.40;;;16.72
68952;BMP180;56000;51.146;17.112;2024-03-02T11:24:53;99518.40;;;16.80
68952;BMP180;56000;51.146;17.112;2024-03-02T11:30:51;99518.60;;;16.90
68952;BMP180;56000;51.146;17.112;2024-03-02T11:33:27;99511.20;;;16.90
68952;BMP180;56000;51.146;17.112;2024-03-02T11:35:57;99510.80;;;16.90
68952;BMP180;56000;51.146;17.112;2024-03-02T11:38:30;99510.00;;;16.90
68952;BMP180;56000;51.146;17.112;2024-03-02T11:41:01;99510.20;;;16.86
68952;BMP180;56000;51.146;17.112;2024-03-02T11:43:30;99507.80;;;16.72
68952;BMP180;56000;51.146;17.112;2024-03-02T11:46:00;99509.40;;;16.70
68952;BMP180;56000;51.146;17.112;2024-03-02T11:48:32;99506.20;;;16.60
68952;BMP180;56000;51.146;17.112;2024-03-02T11:51:01;99505.80;;;16.50
68952;BMP180;56000;51.146;17.112;2024-03-02T11:53:30;99513.60;;;16.50
68952;BMP180;56000;51.146;17.112;2024-03-02T11:56:04;99508.60;;;16.42
68952;BMP180;56000;51.146;17.112;2024-03-02T11:58:37;99505.80;;;16.50
68952;BMP180;56000;51.146;17.112;2024-03-02T12:01:06;99508.40;;;16.50
68952;BMP180;56000;51.146;17.112;2024-03-02T12:03:35;99512.20;;;16.50
68952;BMP180;56000;51.146;17.112;2024-03-02T12:06:05;99517.40;;;16.50
68952;BMP180;56000;51.146;17.112;2024-03-02T12:08:34;99520.80;;;16.60
68952;BMP180;56000;51.146;17.112;2024-03-02T12:11:03;99521.20;;;16.60
68952;BMP180;56000;51.146;17.112;2024-03-02T12:13:32;99521.20;;;16.60
68952;BMP180;56000;51.146;17.112;2024-03-02T12:16:01;99514.40;;;16.60
68952;BMP180;56000;51.146;17.112;2024-03-02T12:18:30;99517.00;;;16.60
68952;BMP180;56000;51.146;17.112;2024-03-02T12:20:59;99518.00;;;16.60
68952;BMP180;56000;51.146;17.112;2024-03-02T12:23:27;99514.60;;;16.70
68952;BMP180;56000;51.146;17.112;2024-03-02T12:25:56;99514.80;;;16.70
68952;BMP180;56000;51.146;17.112;2024-03-02T12:28:24;99513.20;;;16.80
68952;BMP180;56000;51.146;17.112;2024-03-02T12:30:53;99515.60;;;16.98
68952;BMP180;56000;51.146;17.112;2024-03-02T12:33:23;99512.40;;;17.10
68952;BMP180;56000;51.146;17.112;2024-03-02T12:35:53;99508.60;;;17.18
68952;BMP180;56000;51.146;17.112;2024-03-02T12:38:22;99512.00;;;17.20
68952;BMP180;56000;51.146;17.112;2024-03-02T12:40:53;99510.20;;;17.20
68952;BMP180;56000;51.146;17.112;2024-03-02T12:43:22;99510.60;;;17.30
68952;BMP180;56000;51.146;17.112;2024-03-02T12:45:52;99509.60;;;17.32
68952;BMP180;56000;51.146;17.112;2024-03-02T12:48:21;99510.00;;;17.40
68952;BMP180;56000;51.146;17.112;2024-03-02T12:50:50;99508.60;;;17.40
68952;BMP180;56000;51.146;17.112;2024-03-02T12:53:18;99509.00;;;17.40
68952;BMP180;56000;51.146;17.112;2024-03-02T12:55:47;99505.80;;;17.50
68952;BMP180;56000;51.146;17.112;2024-03-02T12:58:20;99505.60;;;17.56
68952;BMP180;56000;51.146;17.112;2024-03-02T13:00:49;99503.60;;;17.60
68952;BMP180;56000;51.146;17.112;2024-03-02T13:03:19;99504.20;;;17.64
68952;BMP180;56000;51.146;17.112;2024-03-02T13:05:50;99503.00;;;17.80
68952;BMP180;56000;51.146;17.112;2024-03-02T13:08:19;99503.40;;;17.80
68952;BMP180;56000;51.146;17.112;2024-03-02T13:10:48;99498.20;;;17.80
68952;BMP180;56000;51.146;17.112;2024-03-02T13:13:16;99497.00;;;17.80
68952;BMP180;56000;51.146;17.112;2024-03-02T13:15:45;99492.00;;;17.80
68952;BMP180;56000;51.146;17.112;2024-03-02T13:18:13;99490.40;;;17.80
68952;BMP180;56000;51.146;17.112;2024-03-02T13:20:42;99492.20;;;17.90
68952;BMP180;56000;51.146;17.112;2024-03-02T13:23:10;99491.20;;;17.90
68952;BMP180;56000;51.146;17.112;2024-03-02T13:25:39;99495.40;;;18.00
68952;BMP180;56000;51.146;17.112;2024-03-02T13:28:07;99494.60;;;18.00
68952;BMP180;56000;51.146;17.112;2024-03-02T13:30:36;99491.80;;;18.00
68952;BMP180;56000;51.146;17.112;2024-03-02T13:33:05;99490.80;;;18.00
68952;BMP180;56000;51.146;17.112;2024-03-02T13:35:34;99486.40;;;17.90
68952;BMP180;56000;51.146;17.112;2024-03-02T13:38:02;99488.40;;;17.80
68952;BMP180;56000;51.146;17.112;2024-03-02T13:40:30;99491.00;;;17.70
68952;BMP180;56000;51.146;17.112;2024-03-02T13:43:03;99490.40;;;17.58
68952;BMP180;56000;51.146;17.112;2024-03-02T13:45:32;99495.00;;;17.48
68952;BMP180;56000;51.146;17.112;2024-03-02T13:48:01;99497.40;;;17.30
68952;BMP180;56000;51.146;17.112;2024-03-02T13:50:31;99495.20;;;17.08
68952;BMP180;56000;51.146;17.112;2024-03-02T13:53:00;99497.20;;;16.90
68952;BMP180;56000;51.146;17.112;2024-03-02T13:55:28;99502.20;;;16.72
68952;BMP180;56000;51.146;17.112;2024-03-02T13:57:57;99506.20;;;16.62
68952;BMP180;56000;51.146;17.112;2024-03-02T14:00:26;99511.20;;;16.60
68952;BMP180;56000;51.146;17.112;2024-03-02T14:02:54;99511.00;;;16.50
68952;BMP180;56000;51.146;17.112;2024-03-02T14:05:23;99511.40;;;16.40
68952;BMP180;56000;51.146;17.112;2024-03-02T14:07:51;99521.80;;;16.30
68952;BMP180;56000;51.146;17.112;2024-03-02T14:10:20;99516.80;;;16.20
68952;BMP180;56000;51.146;17.112;2024-03-02T14:12:50;99517.80;;;16.10
68952;BMP180;56000;51.146;17.112;2024-03-02T14:15:24;99516.20;;;16.10
68952;BMP180;56000;51.146;17.112;2024-03-02T14:17:52;99517.40;;;16.00